createdAt,value
2023-01-11T00:02:01.523Z,97724.66
2023-01-11T00:04:30.647Z,97730.56
2023-01-11T00:06:57.636Z,97728.94
2023-01-11T00:09:24.442Z,97726.25
2023-01-11T00:11:51.044Z,97723.84
2023-01-11T00:14:17.652Z,97734.06
2023-01-11T00:16:44.351Z,97737.56
2023-01-11T00:19:10.943Z,97739.19
2023-01-11T00:21:37.552Z,97742.94
2023-01-11T00:24:04.422Z,97748.03
2023-01-11T00:26:31.054Z,97749.66
2023-01-11T00:28:57.760Z,97738.66
2023-01-11T00:31:24.949Z,97742.94
2023-01-11T00:33:51.581Z,97727.09
2023-01-11T00:36:18.238Z,97741.03
2023-01-11T00:38:46.772Z,97739.66
2023-01-11T00:41:34.243Z,97734.53
2023-01-11T00:44:21.099Z,97727.25
2023-01-11T00:47:06.533Z,97741.03
2023-01-11T00:49:33.240Z,97742.88
2023-01-11T00:51:59.862Z,97736.72
2023-01-11T00:54:26.497Z,97743.94
2023-01-11T00:56:53.128Z,97742.34
2023-01-11T00:59:20.071Z,97754.72
2023-01-11T01:01:46.753Z,97747.47
2023-01-11T01:04:13.336Z,97745.56
2023-01-11T01:06:41.471Z,97745.34
2023-01-11T01:09:08.093Z,97754.81
2023-01-11T01:11:34.669Z,97752.09
2023-01-11T01:14:19.726Z,97755.03
2023-01-11T01:16:47.599Z,97758.84
2023-01-11T01:19:14.473Z,97758.28
2023-01-11T01:21:41.211Z,97760.97
2023-01-11T01:24:07.998Z,97750.97
2023-01-11T01:26:34.927Z,97754.19
2023-01-11T01:29:01.701Z,97753.94
2023-01-11T01:31:28.572Z,97750.97
2023-01-11T01:33:55.233Z,97755.25
2023-01-11T01:36:27.576Z,97749.34
2023-01-11T01:38:54.224Z,97750.97
2023-01-11T01:41:20.897Z,97753.66
2023-01-11T01:43:54.683Z,97751.75
2023-01-11T01:46:23.817Z,97745.03
2023-01-11T01:48:57.144Z,97749.09
2023-01-11T01:51:29.050Z,97753.97
2023-01-11T01:54:01.295Z,97741.31
2023-01-11T01:56:37.617Z,97753.94
2023-01-11T01:59:12.837Z,97752.03
2023-01-11T02:01:50.123Z,97743.66
2023-01-11T02:04:19.304Z,97744.19
2023-01-11T02:06:46.118Z,97745.28
2023-01-11T02:09:36.270Z,97738.03
2023-01-11T02:12:04.948Z,97731.88
2023-01-11T02:14:32.899Z,97733.25
2023-01-11T02:16:59.521Z,97736.47
2023-01-11T02:19:51.096Z,97736.47
2023-01-11T02:22:36.485Z,97737.56
2023-01-11T02:25:14.433Z,97724.94
2023-01-11T02:28:04.784Z,97725.72
2023-01-11T02:30:39.015Z,97721.41
2023-01-11T02:33:23.275Z,97715.50
2023-01-11T02:35:49.828Z,97718.50
2023-01-11T02:38:28.339Z,97716.63
2023-01-11T02:41:06.708Z,97724.72
2023-01-11T02:44:24.209Z,97730.13
2023-01-11T02:47:04.173Z,97733.63
2023-01-11T02:49:40.985Z,97721.25
2023-01-11T02:52:20.761Z,97733.06
2023-01-11T02:54:54.636Z,97706.19
2023-01-11T02:57:24.058Z,97736.03
2023-01-11T02:59:51.321Z,97724.72
2023-01-11T03:02:18.181Z,97714.50
2023-01-11T03:04:44.828Z,97715.56
2023-01-11T03:07:21.436Z,97717.19
2023-01-11T03:10:17.770Z,97720.44
2023-01-11T03:13:13.425Z,97733.38
2023-01-11T03:16:17.759Z,97727.75
2023-01-11T03:19:09.442Z,97738.25
2023-01-11T03:22:13.009Z,97735.81
2023-01-11T03:24:58.973Z,97729.34
2023-01-11T03:27:40.195Z,97735.03
2023-01-11T03:30:24.845Z,97731.28
2023-01-11T03:33:17.946Z,97733.97
2023-01-11T03:35:55.155Z,97723.19
2023-01-11T03:38:33.460Z,97730.19
2023-01-11T03:41:12.944Z,97721.03
2023-01-11T03:43:44.037Z,97724.78
2023-01-11T03:46:15.574Z,97730.13
2023-01-11T03:48:56.753Z,97732.56
2023-01-11T03:51:30.115Z,97717.50
2023-01-11T03:54:03.855Z,97726.34
2023-01-11T03:56:43.157Z,97727.72
2023-01-11T03:59:10.315Z,97724.50
2023-01-11T04:01:37.942Z,97726.13
2023-01-11T04:04:04.871Z,97735.53
2023-01-11T04:06:35.961Z,97730.44
2023-01-11T04:09:05.010Z,97722.88
2023-01-11T04:11:31.645Z,97725.81
2023-01-11T04:13:58.267Z,97727.97
2023-01-11T04:16:24.875Z,97720.44
2023-01-11T04:18:51.411Z,97700.28
2023-01-11T04:21:18.197Z,97717.75
2023-01-11T04:23:44.851Z,97722.59
2023-01-11T04:26:11.505Z,97721.78
2023-01-11T04:28:38.072Z,97720.19
2023-01-11T04:31:04.853Z,97718.59
2023-01-11T04:33:31.477Z,97716.97
2023-01-11T04:35:58.076Z,97714.50
2023-01-11T04:38:26.429Z,97713.97
2023-01-11T04:41:13.066Z,97718.28
2023-01-11T04:43:39.605Z,97704.09
2023-01-11T04:46:06.756Z,97700.56
2023-01-11T04:48:33.759Z,97711.59
2023-01-11T04:51:00.350Z,97704.88
2023-01-11T04:53:27.197Z,97706.78
2023-01-11T04:55:53.813Z,97709.97
2023-01-11T04:58:20.497Z,97686.34
2023-01-11T05:00:47.163Z,97713.19
2023-01-11T05:03:13.796Z,97708.63
2023-01-11T05:05:40.509Z,97701.88
2023-01-11T05:08:07.089Z,97694.13
2023-01-11T05:10:33.709Z,97694.41
2023-01-11T05:13:00.260Z,97697.66
2023-01-11T05:15:26.898Z,97690.34
2023-01-11T05:17:53.561Z,97696.50
2023-01-11T05:20:20.164Z,97688.97
2023-01-11T05:22:46.806Z,97695.44
2023-01-11T05:25:13.595Z,97694.09
2023-01-11T05:27:40.174Z,97690.34
2023-01-11T05:30:07.524Z,97698.97
2023-01-11T05:32:34.236Z,97695.19
2023-01-11T05:35:00.821Z,97703.78
2023-01-11T05:37:27.458Z,97697.88
2023-01-11T05:39:54.033Z,97694.09
2023-01-11T05:42:21.991Z,97684.66
2023-01-11T05:45:07.596Z,97672.84
2023-01-11T05:47:34.141Z,97646.00
2023-01-11T05:50:00.750Z,97669.31
2023-01-11T05:52:27.343Z,97669.88
2023-01-11T05:54:53.950Z,97658.63
2023-01-11T05:57:20.612Z,97669.63
2023-01-11T05:59:47.286Z,97662.94
2023-01-11T06:02:13.928Z,97664.31
2023-01-11T06:04:40.587Z,97671.59
2023-01-11T06:07:10.100Z,97683.47
2023-01-11T06:09:36.731Z,97671.34
2023-01-11T06:12:03.549Z,97671.59
2023-01-11T06:14:30.109Z,97671.03
2023-01-11T06:16:57.020Z,97674.81
2023-01-11T06:19:23.621Z,97666.25
2023-01-11T06:21:50.214Z,97665.72
2023-01-11T06:24:17.763Z,97669.19
2023-01-11T06:26:44.273Z,97664.94
2023-01-11T06:29:11.729Z,97656.63
2023-01-11T06:31:38.272Z,97636.75
2023-01-11T06:34:04.902Z,97663.63
2023-01-11T06:36:31.496Z,97670.66
2023-01-11T06:38:58.093Z,97667.97
2023-01-11T06:41:24.801Z,97666.16
2023-01-11T06:43:51.744Z,97658.09
2023-01-11T06:46:19.249Z,97662.66
2023-01-11T06:48:46.351Z,97667.25
2023-01-11T06:51:14.551Z,97662.94
2023-01-11T06:53:42.765Z,97658.94
2023-01-11T06:56:19.075Z,97665.13
2023-01-11T06:58:47.651Z,97663.50
2023-01-11T07:01:16.625Z,97667.81
2023-01-11T07:03:43.644Z,97667.81
2023-01-11T07:06:10.245Z,97665.41
2023-01-11T07:08:38.290Z,97677.75
2023-01-11T07:11:05.055Z,97672.13
2023-01-11T07:13:31.653Z,97679.09
2023-01-11T07:15:58.517Z,97662.72
2023-01-11T07:18:25.244Z,97674.00
2023-01-11T07:20:52.165Z,97675.34
2023-01-11T07:23:18.772Z,97660.00
2023-01-11T07:25:45.376Z,97672.38
2023-01-11T07:28:12.020Z,97670.78
2023-01-11T07:30:55.953Z,97673.19
2023-01-11T07:33:24.448Z,97672.38
2023-01-11T07:35:51.134Z,97655.72
2023-01-11T07:38:17.746Z,97661.38
2023-01-11T07:40:46.545Z,97660.56
2023-01-11T07:43:19.102Z,97662.19
2023-01-11T07:45:50.382Z,97644.41
2023-01-11T07:48:21.463Z,97643.31
2023-01-11T07:50:48.800Z,97636.81
2023-01-11T07:53:15.593Z,97637.06
2023-01-11T07:55:42.597Z,97642.16
2023-01-11T07:58:12.204Z,97641.66
2023-01-11T08:00:40.748Z,97611.53
2023-01-11T08:03:08.109Z,97628.44
2023-01-11T08:05:35.073Z,97638.97
2023-01-11T08:08:02.162Z,97634.41
2023-01-11T08:10:29.126Z,97636.81
2023-01-11T08:13:14.493Z,97634.69
2023-01-11T08:15:44.176Z,97632.00
2023-01-11T08:18:12.542Z,97636.06
2023-01-11T08:20:40.240Z,97628.78
2023-01-11T08:23:09.472Z,97634.41
2023-01-11T08:25:36.581Z,97645.41
2023-01-11T08:28:05.325Z,97644.03
2023-01-11T08:30:32.543Z,97658.81
2023-01-11T08:33:01.723Z,97649.38
2023-01-11T08:35:28.964Z,97643.22
2023-01-11T08:37:55.537Z,97639.41
2023-01-11T08:40:25.921Z,97627.06
2023-01-11T08:42:59.432Z,97644.22
2023-01-11T08:45:26.123Z,97637.75
2023-01-11T08:47:53.316Z,97652.53
2023-01-11T08:50:22.128Z,97653.88
2023-01-11T08:52:50.934Z,97646.09
2023-01-11T08:55:18.987Z,97657.63
2023-01-11T08:57:46.158Z,97650.56
2023-01-11T09:00:13.784Z,97649.78
2023-01-11T09:02:40.723Z,97635.31
2023-01-11T09:05:07.814Z,97639.84
2023-01-11T09:07:34.570Z,97633.63
2023-01-11T09:10:01.159Z,97635.47
2023-01-11T09:12:27.846Z,97632.78
2023-01-11T09:14:54.442Z,97634.41
2023-01-11T09:17:21.083Z,97626.63
2023-01-11T09:19:47.720Z,97601.88
2023-01-11T09:22:14.467Z,97617.38
2023-01-11T09:24:41.139Z,97614.91
2023-01-11T09:27:08.109Z,97607.84
2023-01-11T09:29:37.164Z,97599.44
2023-01-11T09:32:04.495Z,97597.31
2023-01-11T09:34:31.260Z,97601.25
2023-01-11T09:37:00.726Z,97596.31
2023-01-11T09:39:30.894Z,97596.19
2023-01-11T09:42:31.561Z,97597.94
2023-01-11T09:45:28.486Z,97609.66
2023-01-11T09:48:05.097Z,97609.56
2023-01-11T09:50:41.310Z,97588.44
2023-01-11T09:53:17.482Z,97569.38
2023-01-11T09:55:47.145Z,97596.66
2023-01-11T09:58:51.101Z,97587.75
2023-01-11T10:01:38.419Z,97582.31
2023-01-11T10:04:36.898Z,97578.28
2023-01-11T10:07:14.462Z,97572.28
2023-01-11T10:18:27.592Z,97569.44
2023-01-11T10:19:40.656Z,97579.72
2023-01-11T10:22:18.027Z,97574.88
2023-01-11T10:24:57.911Z,97562.44
2023-01-11T10:27:34.459Z,97570.09
2023-01-11T10:30:24.168Z,97567.75
2023-01-11T10:33:10.488Z,97561.34
2023-01-11T10:36:06.028Z,97558.22
2023-01-11T10:38:50.422Z,97536.22
2023-01-11T10:41:30.001Z,97546.44
2023-01-11T10:44:13.273Z,97547.69
2023-01-11T10:46:45.331Z,97537.91
2023-01-11T10:49:30.540Z,97535.19
2023-01-11T10:52:13.723Z,97527.97
2023-01-11T10:54:46.876Z,97525.69
2023-01-11T10:57:35.904Z,97531.84
2023-01-11T11:00:24.844Z,97530.25
2023-01-11T11:03:00.383Z,97527.81
2023-01-11T11:05:34.197Z,97529.78
2023-01-11T11:08:26.592Z,97526.28
2023-01-11T11:10:58.040Z,97525.16
2023-01-11T11:13:53.613Z,97508.50
2023-01-11T11:16:23.243Z,97506.78
2023-01-11T11:18:55.870Z,97508.59
2023-01-11T11:21:38.919Z,97500.47
2023-01-11T11:24:22.150Z,97502.81
2023-01-11T11:26:57.847Z,97486.16
2023-01-11T11:29:30.531Z,97487.56
2023-01-11T11:32:00.561Z,97485.31
2023-01-11T11:34:28.408Z,97491.97
2023-01-11T11:36:58.930Z,97482.78
2023-01-11T11:39:28.518Z,97481.00
2023-01-11T11:42:06.519Z,97472.81
2023-01-11T11:44:35.599Z,97470.63
2023-01-11T11:47:13.377Z,97478.50
2023-01-11T11:49:40.943Z,97480.84
2023-01-11T11:52:14.126Z,97472.53
2023-01-11T11:54:48.357Z,97474.00
2023-01-11T11:57:28.565Z,97472.91
2023-01-11T12:00:30.997Z,97465.13
2023-01-11T12:03:06.165Z,97454.81
2023-01-11T12:05:33.168Z,97458.84
2023-01-11T12:08:00.651Z,97461.53
2023-01-11T12:10:30.169Z,97471.38
2023-01-11T12:13:02.398Z,97460.81
2023-01-11T12:15:33.781Z,97454.88
2023-01-11T12:18:26.033Z,97461.59
2023-01-11T12:20:53.315Z,97449.13
2023-01-11T12:23:24.177Z,97445.84
2023-01-11T12:26:20.741Z,97440.13
2023-01-11T12:29:17.922Z,97433.13
2023-01-11T12:32:13.061Z,97422.06
2023-01-11T12:35:17.916Z,97417.94
2023-01-11T12:37:44.443Z,97417.94
2023-01-11T12:40:19.080Z,97418.06
2023-01-11T12:42:55.128Z,97414.75
2023-01-11T12:45:32.099Z,97413.66
2023-01-11T12:48:17.832Z,97412.47
2023-01-11T12:51:00.973Z,97406.25
2023-01-11T12:53:53.807Z,97406.38
2023-01-11T12:56:56.554Z,97402.84
2023-01-11T12:59:58.382Z,97395.25
2023-01-11T13:02:42.219Z,97399.19
2023-01-11T13:05:26.963Z,97401.50
2023-01-11T13:08:37.093Z,97406.81
2023-01-11T13:11:37.502Z,97404.13
2023-01-11T13:14:14.600Z,97393.31
2023-01-11T13:17:19.275Z,97386.31
2023-01-11T13:20:10.994Z,97380.78
2023-01-11T13:22:42.459Z,97380.47
2023-01-11T13:25:41.151Z,97371.09
2023-01-11T13:28:34.055Z,97365.88
2023-01-11T13:31:03.942Z,97365.41
2023-01-11T13:33:32.711Z,97370.81
2023-01-11T13:36:18.499Z,97373.78
2023-01-11T13:39:00.601Z,97367.59
2023-01-11T13:41:38.675Z,97365.47
2023-01-11T13:44:32.634Z,97362.28
2023-01-11T13:47:23.129Z,97350.44
2023-01-11T13:50:03.626Z,97363.44
2023-01-11T13:52:52.963Z,97362.16
2023-01-11T13:55:26.934Z,97359.25
2023-01-11T13:58:29.027Z,97367.94
2023-01-11T14:01:03.580Z,97369.59
2023-01-11T14:03:56.900Z,97371.88
2023-01-11T14:06:45.199Z,97374.16
2023-01-11T14:09:23.383Z,97361.09
2023-01-11T14:12:08.403Z,97377.28
2023-01-11T14:14:41.191Z,97372.78
2023-01-11T14:17:21.297Z,97367.16
2023-01-11T14:20:01.540Z,97355.13
2023-01-11T14:22:55.852Z,97360.59
2023-01-11T14:25:32.720Z,97352.09
2023-01-11T14:28:32.923Z,97357.25
2023-01-11T14:31:26.902Z,97357.59
2023-01-11T14:34:07.632Z,97358.78
2023-01-11T14:37:21.179Z,97353.50
2023-01-11T14:40:05.814Z,97346.59
2023-01-11T14:42:51.278Z,97345.03
2023-01-11T14:45:21.227Z,97344.00
2023-01-11T14:47:59.007Z,97343.28
2023-01-11T14:50:44.044Z,97347.91
2023-01-11T14:53:18.891Z,97339.88
2023-01-11T14:55:46.491Z,97339.38
2023-01-11T14:58:21.430Z,97327.03
2023-01-11T15:00:48.102Z,97330.28
2023-01-11T15:03:19.670Z,97334.94
2023-01-11T15:06:00.533Z,97334.16
2023-01-11T15:08:34.841Z,97337.44
2023-01-11T15:11:02.810Z,97320.03
2023-01-11T15:13:34.323Z,97319.56
2023-01-11T15:16:50.094Z,97318.81
2023-01-11T15:19:35.255Z,97307.06
2023-01-11T15:22:04.563Z,97313.47
2023-01-11T15:24:43.656Z,97315.13
2023-01-11T15:27:26.827Z,97304.19
2023-01-11T15:29:56.573Z,97296.97
2023-01-11T15:32:27.703Z,97297.88
2023-01-11T15:34:54.846Z,97305.19
2023-01-11T15:37:47.797Z,97296.59
2023-01-11T15:40:26.279Z,97294.41
2023-01-11T15:43:33.012Z,97296.59
2023-01-11T15:46:37.205Z,97290.66
2023-01-11T15:49:42.324Z,97288.25
2023-01-11T15:52:18.948Z,97281.31
2023-01-11T15:54:57.609Z,97293.06
2023-01-11T15:57:32.555Z,97288.81
2023-01-11T16:00:17.862Z,97293.09
2023-01-11T16:03:22.307Z,97296.38
2023-01-11T16:06:38.613Z,97288.84
2023-01-11T16:09:26.414Z,97289.16
2023-01-11T16:12:14.003Z,97288.31
2023-01-11T16:14:58.741Z,97289.47
2023-01-11T16:17:26.599Z,97283.56
2023-01-11T16:19:56.986Z,97283.28
2023-01-11T16:22:26.704Z,97280.88
2023-01-11T16:25:01.471Z,97290.84
2023-01-11T16:27:32.269Z,97296.28
2023-01-11T16:29:59.415Z,97276.44
2023-01-11T16:32:33.853Z,97289.88
2023-01-11T16:35:02.371Z,97277.03
2023-01-11T16:37:44.438Z,97276.56
2023-01-11T16:40:11.357Z,97286.53
2023-01-11T16:42:58.629Z,97283.84
2023-01-11T16:45:40.144Z,97272.22
2023-01-11T16:48:13.672Z,97274.88
2023-01-11T16:50:45.095Z,97276.19
2023-01-11T16:53:13.481Z,97271.91
2023-01-11T16:55:54.414Z,97267.59
2023-01-11T16:58:26.739Z,97276.75
2023-01-11T17:01:14.087Z,97277.03
2023-01-11T17:03:50.900Z,97274.91
2023-01-11T17:06:25.091Z,97275.47
2023-01-11T17:08:54.463Z,97271.50
2023-01-11T17:11:37.509Z,97272.63
2023-01-11T17:14:27.270Z,97267.19
2023-01-11T17:17:03.348Z,97272.56
2023-01-11T17:19:32.752Z,97272.31
2023-01-11T17:22:05.307Z,97266.41
2023-01-11T17:24:39.727Z,97277.69
2023-01-11T17:27:09.238Z,97272.88
2023-01-11T17:29:40.146Z,97279.03
2023-01-11T17:32:17.181Z,97271.81
2023-01-11T17:34:44.019Z,97272.34
2023-01-11T17:37:15.046Z,97268.88
2023-01-11T17:39:47.724Z,97275.03
2023-01-11T17:42:34.140Z,97271.28
2023-01-11T17:45:13.311Z,97264.28
2023-01-11T17:47:48.367Z,97266.97
2023-01-11T17:50:29.092Z,97266.72
2023-01-11T17:53:14.105Z,97257.78
2023-01-11T17:56:01.066Z,97263.69
2023-01-11T17:58:28.663Z,97243.59
2023-01-11T18:01:18.412Z,97254.56
2023-01-11T18:03:50.622Z,97225.97
2023-01-11T18:06:42.591Z,97256.75
2023-01-11T18:09:20.503Z,97249.75
2023-01-11T18:11:52.019Z,97258.66
2023-01-11T18:14:29.075Z,97251.91
2023-01-11T18:17:05.781Z,97252.47
2023-01-11T18:19:40.931Z,97250.31
2023-01-11T18:22:40.718Z,97259.47
2023-01-11T18:25:28.120Z,97245.25
2023-01-11T18:28:28.542Z,97261.88
2023-01-11T18:30:58.814Z,97258.19
2023-01-11T18:33:29.312Z,97259.53
2023-01-11T18:36:01.850Z,97255.47
2023-01-11T18:38:35.000Z,97268.38
2023-01-11T18:41:26.331Z,97250.88
2023-01-11T18:43:54.148Z,97258.91
2023-01-11T18:46:21.126Z,97263.22
2023-01-11T18:48:47.791Z,97242.34
2023-01-11T18:51:21.715Z,97259.47
2023-01-11T18:53:48.468Z,97249.03
2023-01-11T18:56:16.495Z,97254.38
2023-01-11T18:58:43.336Z,97252.78
2023-01-11T19:01:10.542Z,97262.75
2023-01-11T19:03:37.947Z,97253.31
2023-01-11T19:06:05.643Z,97257.91
2023-01-11T19:08:32.473Z,97253.88
2023-01-11T19:10:59.127Z,97259.03
2023-01-11T19:13:25.832Z,97262.63
2023-01-11T19:15:52.887Z,97262.16
2023-01-11T19:18:19.496Z,97261.13
2023-01-11T19:20:46.268Z,97252.53
2023-01-11T19:23:13.163Z,97259.53
2023-01-11T19:25:39.955Z,97264.97
2023-01-11T19:28:06.687Z,97276.56
2023-01-11T19:30:33.398Z,97267.50
2023-01-11T19:33:00.210Z,97260.00
2023-01-11T19:35:26.821Z,97282.00
2023-01-11T19:37:53.610Z,97277.69
2023-01-11T19:40:21.402Z,97250.91
2023-01-11T19:42:48.244Z,97268.03
2023-01-11T19:45:15.016Z,97278.25
2023-01-11T19:47:42.276Z,97279.31
2023-01-11T19:50:09.616Z,97284.97
2023-01-11T19:52:36.265Z,97279.06
2023-01-11T19:55:02.982Z,97278.00
2023-01-11T19:57:29.901Z,97277.22
2023-01-11T19:59:56.683Z,97276.63
2023-01-11T20:02:26.279Z,97265.91
2023-01-11T20:04:54.049Z,97283.03
2023-01-11T20:07:21.348Z,97290.78
2023-01-11T20:09:48.135Z,97291.06
2023-01-11T20:12:18.542Z,97284.34
2023-01-11T20:14:47.560Z,97273.09
2023-01-11T20:17:19.297Z,97278.72
2023-01-11T20:19:46.901Z,97293.44
2023-01-11T20:22:13.741Z,97251.88
2023-01-11T20:24:40.332Z,97288.84
2023-01-11T20:27:07.037Z,97281.34
2023-01-11T20:29:34.383Z,97278.91
2023-01-11T20:32:24.661Z,97293.63
2023-01-11T20:34:47.576Z,97279.94
2023-01-11T20:37:15.260Z,97285.03
2023-01-11T20:39:42.181Z,97286.59
2023-01-11T20:42:09.467Z,97282.25
2023-01-11T20:44:36.202Z,97280.06
2023-01-11T20:47:02.918Z,97285.41
2023-01-11T20:49:30.264Z,97275.75
2023-01-11T20:51:58.813Z,97285.38
2023-01-11T20:54:25.905Z,97281.59
2023-01-11T20:56:53.217Z,97286.72
2023-01-11T20:59:20.764Z,97281.34
2023-01-11T21:01:49.754Z,97280.81
2023-01-11T21:04:24.781Z,97285.91
2023-01-11T21:06:51.647Z,97273.00
2023-01-11T21:09:19.652Z,97275.69
2023-01-11T21:11:54.282Z,97258.03
2023-01-11T21:14:23.817Z,97270.38
2023-01-11T21:16:56.226Z,97274.34
2023-01-11T21:19:29.622Z,97267.91
2023-01-11T21:21:57.934Z,97264.38
2023-01-11T21:24:34.444Z,97273.44
2023-01-11T21:27:01.609Z,97263.97
2023-01-11T21:29:29.279Z,97270.63
2023-01-11T21:31:58.436Z,97273.28
2023-01-11T21:34:25.083Z,97280.72
2023-01-11T21:36:51.644Z,97292.19
2023-01-11T21:39:18.666Z,97295.13
2023-01-11T21:42:01.318Z,97293.16
2023-01-11T21:44:36.013Z,97292.81
2023-01-11T21:47:05.839Z,97293.28
2023-01-11T21:49:34.035Z,97284.31
2023-01-11T21:52:08.992Z,97271.72
2023-01-11T21:54:38.303Z,97296.22
2023-01-11T21:57:08.223Z,97274.75
2023-01-11T21:59:47.813Z,97295.03
2023-01-11T22:02:18.483Z,97280.56
2023-01-11T22:04:48.549Z,97305.97
2023-01-11T22:07:15.486Z,97294.47
2023-01-11T22:10:03.803Z,97314.75
2023-01-11T22:12:46.760Z,97300.66
2023-01-11T22:15:24.523Z,97295.53
2023-01-11T22:17:52.185Z,97296.63
2023-01-11T22:20:23.183Z,97299.84
2023-01-11T22:22:50.520Z,97327.13
2023-01-11T22:25:19.506Z,97317.16
2023-01-11T22:27:46.997Z,97321.47
2023-01-11T22:30:14.688Z,97296.59
2023-01-11T22:32:44.777Z,97314.75
2023-01-11T22:35:12.814Z,97323.28
2023-01-11T22:37:41.204Z,97299.97
2023-01-11T22:40:11.138Z,97329.97
2023-01-11T22:42:38.921Z,97327.59
2023-01-11T22:45:09.491Z,97331.28
2023-01-11T22:47:37.811Z,97334.44
2023-01-11T22:50:06.179Z,97314.03
2023-01-11T22:52:34.402Z,97327.66
2023-01-11T22:55:07.552Z,97338.41
2023-01-11T22:57:39.554Z,97331.91
2023-01-11T23:00:09.776Z,97343.44
2023-01-11T23:02:36.407Z,97341.56
2023-01-11T23:05:03.121Z,97342.13
2023-01-11T23:07:30.178Z,97346.94
2023-01-11T23:09:57.274Z,97348.31
2023-01-11T23:12:43.529Z,97355.09
2023-01-11T23:15:10.785Z,97343.28
2023-01-11T23:17:45.347Z,97357.25
2023-01-11T23:20:12.730Z,97368.25
2023-01-11T23:22:44.676Z,97359.66
2023-01-11T23:25:15.109Z,97371.53
2023-01-11T23:27:43.349Z,97360.53
2023-01-11T23:30:11.127Z,97365.88
2023-01-11T23:32:44.119Z,97354.25
2023-01-11T23:35:11.923Z,97355.09
2023-01-11T23:37:38.527Z,97355.31
2023-01-11T23:40:06.040Z,97346.47
2023-01-11T23:42:38.468Z,97362.09
2023-01-11T23:45:08.520Z,97362.59
2023-01-11T23:47:35.161Z,97365.81
2023-01-11T23:50:02.096Z,97363.69
2023-01-11T23:52:31.647Z,97362.59
2023-01-11T23:55:01.485Z,97366.09
2023-01-11T23:57:30.083Z,97357.63
2023-01-11T23:59:56.782Z,97374.75
